Time;durP1;ratioP1;P1;durP2;ratioP2;P2;SDS_P1;SDS_P2;PMS_P1;PMS_P2;Temp;Humidity;BMP_temperature;BMP_pressure;BME280_temperature;BME280_humidity;BME280_pressure;Samples;Min_cycle;Max_cycle;Signal;HPM_P1;HPM_P2
2022/12/07 00:01:29;;;;;;;3.78;1.40;;;19.40;59.00;;;;;;4977074;28;20042;-56
2022/12/07 00:04:04;;;;;;;4.40;1.42;;;19.40;58.90;;;;;;4977131;28;20055;-56
2022/12/07 00:06:30;;;;;;;2.92;1.30;;;19.40;58.90;;;;;;4976309;28;20043;-56
2022/12/07 00:08:55;;;;;;;4.07;1.58;;;19.40;58.90;;;;;;4977286;28;20050;-56
2022/12/07 00:11:21;;;;;;;4.20;1.83;;;19.30;58.80;;;;;;4977107;28;20498;-57
2022/12/07 00:13:50;;;;;;;4.40;1.50;;;19.40;58.80;;;;;;4976184;28;20042;-57
2022/12/07 00:16:17;;;;;;;4.00;1.60;;;19.40;58.90;;;;;;4976397;28;20475;-56
2022/12/07 00:18:43;;;;;;;4.65;1.40;;;19.30;58.80;;;;;;4976485;28;20050;-56
2022/12/07 00:21:11;;;;;;;3.70;1.40;;;19.30;58.80;;;;;;4976815;28;20183;-56
2022/12/07 00:23:36;;;;;;;5.13;1.48;;;19.30;58.80;;;;;;4976629;28;20055;-56
2022/12/07 00:26:13;;;;;;;4.35;1.50;;;19.30;58.80;;;;;;4975797;28;20060;-57
2022/12/07 00:28:38;;;;;;;4.25;1.50;;;19.30;58.70;;;;;;4976954;28;20575;-57
2022/12/07 00:31:06;;;;;;;3.55;1.45;;;19.30;58.80;;;;;;4976157;28;20038;-56
2022/12/07 00:33:32;;;;;;;4.32;1.30;;;19.30;58.70;;;;;;4975454;28;20117;-57
2022/12/07 00:35:58;;;;;;;3.90;1.65;;;19.20;58.60;;;;;;4976722;28;20047;-57
2022/12/07 00:38:24;;;;;;;3.30;1.60;;;19.30;58.70;;;;;;4975827;28;20425;-57
2022/12/07 00:41:04;;;;;;;6.47;1.70;;;19.20;58.60;;;;;;4975704;28;20043;-56
2022/12/07 00:43:30;;;;;;;4.00;1.50;;;19.20;58.50;;;;;;4976000;28;20090;-56
2022/12/07 00:45:56;;;;;;;3.78;1.58;;;19.20;58.60;;;;;;4976622;28;20423;-56
2022/12/07 00:48:21;;;;;;;2.83;1.10;;;19.20;58.50;;;;;;4975673;28;20051;-56
2022/12/07 00:50:47;;;;;;;3.55;1.30;;;19.20;58.50;;;;;;4976866;28;20130;-56
2022/12/07 00:53:13;;;;;;;5.05;1.60;;;19.20;58.50;;;;;;4974866;28;20075;-57
2022/12/07 00:55:38;;;;;;;2.33;1.30;;;19.20;58.50;;;;;;4975299;28;20050;-57
2022/12/07 00:58:04;;;;;;;4.22;1.40;;;19.20;58.50;;;;;;4976398;28;20046;-56
2022/12/07 01:00:30;;;;;;;4.07;1.10;;;19.10;58.40;;;;;;4975960;28;20474;-56
2022/12/07 01:02:55;;;;;;;3.58;1.25;;;19.10;58.40;;;;;;4975331;28;20475;-56
2022/12/07 01:05:21;;;;;;;3.47;1.27;;;19.10;58.30;;;;;;4976008;28;20054;-56
2022/12/07 01:07:46;;;;;;;3.83;1.25;;;19.10;58.30;;;;;;4976259;28;20049;-56
2022/12/07 01:10:13;;;;;;;3.05;1.17;;;19.10;58.30;;;;;;4974846;28;20047;-56
2022/12/07 01:12:38;;;;;;;3.47;1.23;;;19.00;58.20;;;;;;4975967;28;20043;-56
2022/12/07 01:15:04;;;;;;;3.20;1.20;;;19.10;58.30;;;;;;4975218;28;20126;-56
2022/12/07 01:17:30;;;;;;;4.43;1.00;;;19.00;58.20;;;;;;4975211;28;20565;-56
2022/12/07 01:19:55;;;;;;;3.08;1.30;;;19.10;58.10;;;;;;4976109;28;20039;-56
2022/12/07 01:22:21;;;;;;;3.10;1.20;;;19.00;58.00;;;;;;4974819;28;20051;-56
2022/12/07 01:24:47;;;;;;;3.38;1.30;;;19.00;58.00;;;;;;4975789;28;20119;-56
2022/12/07 01:27:13;;;;;;;3.67;1.55;;;19.00;58.00;;;;;;4975321;28;20398;-56
2022/12/07 01:29:38;;;;;;;4.10;1.30;;;19.00;58.00;;;;;;4974906;28;20415;-56
2022/12/07 01:32:04;;;;;;;4.25;1.30;;;19.00;57.90;;;;;;4975945;28;20039;-56
2022/12/07 01:34:30;;;;;;;3.50;1.23;;;19.00;57.90;;;;;;4975468;28;20043;-56
2022/12/07 01:36:55;;;;;;;2.40;1.00;;;19.00;58.00;;;;;;4974852;28;20074;-56
2022/12/07 01:39:21;;;;;;;3.85;1.10;;;19.00;58.00;;;;;;4975213;28;20043;-56
2022/12/07 01:41:47;;;;;;;2.90;0.90;;;19.00;58.00;;;;;;4975238;28;20050;-56
2022/12/07 01:44:14;;;;;;;3.80;1.50;;;19.00;57.90;;;;;;4974312;28;20055;-56
2022/12/07 01:46:39;;;;;;;2.83;1.20;;;18.90;57.90;;;;;;4975529;28;20506;-56
2022/12/07 01:49:06;;;;;;;2.47;1.00;;;19.00;57.90;;;;;;4975408;28;20039;-56
2022/12/07 01:51:32;;;;;;;3.75;1.17;;;19.00;58.00;;;;;;4941231;28;20046;-56
2022/12/07 01:53:57;;;;;;;3.63;1.20;;;18.90;57.90;;;;;;4975099;28;20051;-55
2022/12/07 01:56:24;;;;;;;2.75;0.77;;;18.90;57.90;;;;;;4973757;28;20050;-56
2022/12/07 01:58:50;;;;;;;2.45;1.10;;;18.90;57.90;;;;;;4973258;28;20039;-56
2022/12/07 02:01:16;;;;;;;3.63;1.35;;;18.90;57.80;;;;;;4973588;28;20043;-56
2022/12/07 02:03:42;;;;;;;3.58;1.10;;;18.90;57.90;;;;;;4974175;28;20054;-56
2022/12/07 02:06:09;;;;;;;2.42;0.95;;;18.90;57.90;;;;;;4974125;28;20150;-56
2022/12/07 02:08:40;;;;;;;3.13;0.93;;;18.90;57.90;;;;;;4957110;28;20086;-57
2022/12/07 02:11:06;;;;;;;2.80;1.13;;;18.90;57.90;;;;;;4972428;28;20047;-56
2022/12/07 02:13:33;;;;;;;4.20;1.20;;;18.90;57.80;;;;;;4973914;28;20058;-56
2022/12/07 02:16:10;;;;;;;3.08;1.00;;;18.90;57.90;;;;;;4957640;28;20054;-55
2022/12/07 02:18:43;;;;;;;3.10;0.98;;;18.90;57.80;;;;;;4974181;28;20086;-55
2022/12/07 02:21:20;;;;;;;2.95;0.90;;;18.90;57.90;;;;;;4972971;28;20043;-55
2022/12/07 02:24:07;;;;;;;3.05;1.05;;;18.90;57.80;;;;;;4973540;28;20153;-55
2022/12/07 02:26:49;;;;;;;1.73;0.70;;;18.80;57.80;;;;;;4973490;28;20043;-55
2022/12/07 02:29:24;;;;;;;2.83;1.05;;;18.90;57.90;;;;;;4973183;28;20310;-55
2022/12/07 02:32:27;;;;;;;2.17;1.20;;;18.80;57.90;;;;;;4972957;28;20469;-55
2022/12/07 02:34:57;;;;;;;2.08;0.75;;;18.80;57.80;;;;;;4950486;28;20507;-56
2022/12/07 02:37:30;;;;;;;3.22;0.93;;;18.80;57.80;;;;;;4973048;28;20077;-55
2022/12/07 02:40:08;;;;;;;1.98;0.68;;;18.80;57.80;;;;;;4972650;28;20062;-55
2022/12/07 02:42:42;;;;;;;1.40;0.77;;;18.80;57.80;;;;;;4972921;28;20039;-55
2022/12/07 02:45:08;;;;;;;2.13;0.75;;;18.80;57.80;;;;;;4973432;28;20055;-55
2022/12/07 02:47:33;;;;;;;2.53;1.08;;;18.80;57.80;;;;;;4972348;28;20039;-55
2022/12/07 02:49:59;;;;;;;2.45;0.70;;;18.80;57.80;;;;;;4972826;28;20057;-55
2022/12/07 02:52:24;;;;;;;2.20;0.80;;;18.80;57.80;;;;;;4972744;28;20118;-55
2022/12/07 02:54:50;;;;;;;2.25;0.60;;;18.80;57.80;;;;;;4973206;28;20097;-55
2022/12/07 02:57:31;;;;;;;2.60;0.90;;;18.80;57.80;;;;;;4973935;28;20053;-55
2022/12/07 03:00:09;;;;;;;1.58;0.50;;;18.80;57.80;;;;;;4972700;28;20450;-55
2022/12/07 03:02:52;;;;;;;3.10;0.82;;;18.80;57.70;;;;;;4954694;28;20050;-56
2022/12/07 03:05:23;;;;;;;2.35;0.70;;;18.80;57.70;;;;;;4972274;28;20097;-56
2022/12/07 03:08:06;;;;;;;1.50;0.65;;;18.80;57.60;;;;;;4973015;28;20388;-56
2022/12/07 03:10:58;;;;;;;1.40;0.68;;;18.90;57.70;;;;;;4972214;28;20050;-56
2022/12/07 03:13:48;;;;;;;1.63;0.70;;;18.90;57.70;;;;;;4972249;28;20054;-56
2022/12/07 03:16:33;;;;;;;1.33;0.70;;;18.90;57.60;;;;;;4971762;28;20094;-56
2022/12/07 03:19:19;;;;;;;2.55;0.80;;;18.90;57.50;;;;;;4973904;28;20055;-56
2022/12/07 03:21:49;;;;;;;2.55;0.60;;;18.90;57.50;;;;;;4971727;28;20039;-56
2022/12/07 03:24:20;;;;;;;1.25;0.50;;;18.90;57.50;;;;;;4956491;28;20129;-56
2022/12/07 03:27:13;;;;;;;1.77;0.70;;;18.90;57.50;;;;;;4972610;28;20047;-56
2022/12/07 03:29:43;;;;;;;2.25;0.80;;;19.00;57.50;;;;;;4957958;28;20053;-55
2022/12/07 03:32:35;;;;;;;2.25;1.00;;;19.00;57.50;;;;;;4972092;28;20094;-56
2022/12/07 03:35:03;;;;;;;1.67;0.65;;;19.00;57.40;;;;;;4972445;28;20051;-55
2022/12/07 03:37:34;;;;;;;1.52;0.75;;;19.00;57.40;;;;;;4972270;28;20462;-55
2022/12/07 03:40:11;;;;;;;1.75;0.73;;;19.00;57.40;;;;;;4972584;28;20053;-55
2022/12/07 03:42:37;;;;;;;1.67;0.70;;;19.00;57.40;;;;;;4973568;28;20562;-55
2022/12/07 03:45:03;;;;;;;2.75;0.80;;;19.00;57.40;;;;;;4972481;28;20046;-55
2022/12/07 03:47:35;;;;;;;3.30;0.80;;;19.00;57.30;;;;;;4971898;28;20507;-55
2022/12/07 03:50:07;;;;;;;1.95;0.60;;;19.00;57.30;;;;;;4956131;28;20130;-55
2022/12/07 03:52:39;;;;;;;2.25;0.50;;;19.00;57.20;;;;;;4956338;28;20073;-56
2022/12/07 03:55:19;;;;;;;1.85;0.70;;;19.00;57.20;;;;;;4956111;28;20051;-55
2022/12/07 03:57:45;;;;;;;2.13;0.60;;;19.10;57.20;;;;;;4972764;28;20053;-55
2022/12/07 04:00:11;;;;;;;1.65;0.50;;;19.10;57.20;;;;;;4972750;28;20394;-55
2022/12/07 04:02:37;;;;;;;1.90;0.80;;;19.10;57.20;;;;;;4973368;28;20043;-55
2022/12/07 04:05:02;;;;;;;1.92;0.60;;;19.10;57.20;;;;;;4972978;28;20042;-55
2022/12/07 04:07:28;;;;;;;2.00;0.75;;;19.10;57.10;;;;;;4972709;28;20805;-55
2022/12/07 04:09:54;;;;;;;1.95;0.52;;;19.10;57.20;;;;;;4973444;28;20057;-55
2022/12/07 04:12:21;;;;;;;1.10;0.40;;;19.10;57.10;;;;;;4972377;28;20042;-56
2022/12/07 04:14:46;;;;;;;1.52;0.60;;;19.10;57.10;;;;;;4973470;28;20154;-55
2022/12/07 04:17:12;;;;;;;1.35;0.50;;;19.10;57.10;;;;;;4972871;28;20054;-55
2022/12/07 04:19:37;;;;;;;1.85;0.50;;;19.20;57.20;;;;;;4972429;28;20043;-55
2022/12/07 04:22:03;;;;;;;1.55;0.55;;;19.20;57.10;;;;;;4973254;28;20046;-55
2022/12/07 04:24:29;;;;;;;2.13;0.50;;;19.20;57.10;;;;;;4972889;28;20039;-55
2022/12/07 04:26:55;;;;;;;2.03;0.60;;;19.20;57.10;;;;;;4972205;28;20116;-55
2022/12/07 04:29:20;;;;;;;1.67;0.60;;;19.20;57.00;;;;;;4972856;28;20054;-55
2022/12/07 04:31:46;;;;;;;1.15;0.38;;;19.20;57.00;;;;;;4975234;28;20050;-55
2022/12/07 04:34:11;;;;;;;1.08;0.40;;;19.20;57.00;;;;;;4975886;28;20518;-55
2022/12/07 04:36:37;;;;;;;1.67;0.40;;;19.30;57.00;;;;;;4976747;28;20093;-55
2022/12/07 04:39:03;;;;;;;1.35;0.57;;;19.30;57.00;;;;;;4975823;28;20486;-55
2022/12/07 04:41:29;;;;;;;3.08;0.75;;;19.30;57.00;;;;;;4976092;28;20047;-55
2022/12/07 04:44:03;;;;;;;1.40;0.73;;;19.30;57.00;;;;;;4976381;28;20065;-56
2022/12/07 04:46:29;;;;;;;1.25;0.52;;;19.40;57.00;;;;;;4975639;28;20046;-56
2022/12/07 04:48:55;;;;;;;1.98;0.50;;;19.40;57.00;;;;;;4976384;28;20051;-55
2022/12/07 04:51:25;;;;;;;0.80;0.40;;;19.30;56.90;;;;;;4976283;28;20053;-56
2022/12/07 04:53:51;;;;;;;1.05;0.40;;;19.40;56.90;;;;;;4975846;28;20054;-56
2022/12/07 04:56:17;;;;;;;1.67;0.50;;;19.40;56.90;;;;;;4975989;28;20121;-56
2022/12/07 04:58:43;;;;;;;1.38;0.52;;;19.40;56.90;;;;;;4976067;28;20050;-56
2022/12/07 05:01:08;;;;;;;1.38;0.40;;;19.40;56.90;;;;;;4974316;28;20066;-56
2022/12/07 05:03:35;;;;;;;1.42;0.50;;;19.40;56.90;;;;;;4975210;28;20101;-55
2022/12/07 05:06:01;;;;;;;1.67;0.52;;;19.40;56.90;;;;;;4974084;28;20051;-56
2022/12/07 05:08:26;;;;;;;1.10;0.40;;;19.50;56.90;;;;;;4974775;28;20049;-56
2022/12/07 05:10:52;;;;;;;0.98;0.47;;;19.50;56.90;;;;;;4976183;28;20062;-55
2022/12/07 05:13:17;;;;;;;2.80;0.60;;;19.40;56.90;;;;;;4975703;28;20073;-55
2022/12/07 05:15:43;;;;;;;1.55;0.55;;;19.50;56.90;;;;;;4975587;28;20167;-56
2022/12/07 05:18:12;;;;;;;1.83;0.50;;;19.50;56.90;;;;;;4975471;28;20043;-56
2022/12/07 05:20:38;;;;;;;1.17;0.38;;;19.50;56.80;;;;;;4975795;28;20521;-57
2022/12/07 05:23:03;;;;;;;1.85;0.60;;;19.50;56.90;;;;;;4975316;28;20542;-56
2022/12/07 05:25:29;;;;;;;2.13;0.47;;;19.50;56.80;;;;;;4975501;28;20038;-56
2022/12/07 05:27:56;;;;;;;1.48;0.50;;;19.50;56.70;;;;;;4975804;28;20129;-56
2022/12/07 05:30:22;;;;;;;1.65;0.50;;;19.50;56.70;;;;;;4974795;28;20070;-57
2022/12/07 05:32:47;;;;;;;1.45;0.50;;;19.60;56.80;;;;;;4975721;28;20158;-56
2022/12/07 05:35:13;;;;;;;0.70;0.30;;;19.50;56.70;;;;;;4974800;28;20075;-56
2022/12/07 05:37:38;;;;;;;3.58;0.60;;;19.60;56.80;;;;;;4975130;28;20086;-57
2022/12/07 05:40:05;;;;;;;2.60;0.40;;;19.60;56.70;;;;;;4975501;28;20053;-56
2022/12/07 05:42:30;;;;;;;1.38;0.30;;;19.60;57.40;;;;;;4973218;28;20047;-56
2022/12/07 05:44:56;;;;;;;1.30;0.40;;;19.60;56.60;;;;;;4974966;28;20406;-56
2022/12/07 05:47:22;;;;;;;1.77;0.40;;;19.60;56.60;;;;;;4974729;28;20050;-56
2022/12/07 05:49:47;;;;;;;1.70;0.50;;;19.60;56.60;;;;;;4974490;28;20125;-56
2022/12/07 05:52:13;;;;;;;2.28;0.50;;;19.60;56.60;;;;;;4974625;28;20043;-56
2022/12/07 05:54:38;;;;;;;0.73;0.30;;;19.60;56.60;;;;;;4975355;28;20406;-57
2022/12/07 05:57:04;;;;;;;2.67;0.50;;;19.70;56.60;;;;;;4974432;28;20070;-56
2022/12/07 05:59:29;;;;;;;1.80;0.38;;;19.60;56.60;;;;;;4974637;28;20047;-56
2022/12/07 06:02:06;;;;;;;1.90;0.40;;;19.70;56.60;;;;;;4975121;28;20049;-56
2022/12/07 06:04:33;;;;;;;0.52;0.30;;;19.70;57.30;;;;;;4974139;28;20057;-56
2022/12/07 06:06:59;;;;;;;1.02;0.40;;;19.70;56.60;;;;;;4975053;28;20039;-56
2022/12/07 06:09:25;;;;;;;2.60;0.68;;;19.70;56.60;;;;;;4974857;28;20058;-55
2022/12/07 06:14:35;;;;;;;1.40;0.40;;;19.70;56.50;;;;;;4974732;28;20050;-55
2022/12/07 06:17:00;;;;;;;2.38;0.40;;;19.70;56.60;;;;;;4974969;28;20042;-55
2022/12/07 06:19:26;;;;;;;0.95;0.30;;;19.70;56.50;;;;;;4973937;28;20035;-55
2022/12/07 06:21:52;;;;;;;0.90;0.38;;;19.70;56.50;;;;;;4974854;28;20037;-55
2022/12/07 06:24:17;;;;;;;0.93;0.47;;;19.80;56.60;;;;;;4974159;28;20046;-56
2022/12/07 06:26:43;;;;;;;1.60;0.30;;;19.80;56.60;;;;;;4973887;28;20046;-55
2022/12/07 06:29:09;;;;;;;2.35;0.40;;;19.80;56.60;;;;;;4974268;28;20039;-56
2022/12/07 06:31:35;;;;;;;1.60;0.40;;;19.80;56.50;;;;;;4973228;28;20046;-56
2022/12/07 06:34:02;;;;;;;2.60;0.57;;;19.80;56.50;;;;;;4973948;28;20070;-56
2022/12/07 06:36:27;;;;;;;1.25;0.22;;;19.80;56.50;;;;;;4974251;28;20134;-55
2022/12/07 06:38:53;;;;;;;1.98;0.40;;;19.80;56.50;;;;;;4973525;28;20193;-56
2022/12/07 06:41:19;;;;;;;2.08;0.35;;;19.80;56.40;;;;;;4973301;28;20487;-56
2022/12/07 06:43:44;;;;;;;0.77;0.30;;;19.80;56.40;;;;;;4973878;28;20094;-56
2022/12/07 06:46:10;;;;;;;1.30;0.30;;;19.80;56.40;;;;;;4973323;28;20058;-57
2022/12/07 06:48:35;;;;;;;1.02;0.32;;;19.80;56.40;;;;;;4974432;28;20034;-57
2022/12/07 06:51:01;;;;;;;0.90;0.30;;;19.80;56.40;;;;;;4974279;28;20543;-57
2022/12/07 06:53:26;;;;;;;1.17;0.32;;;19.80;56.40;;;;;;4972977;28;20051;-57
2022/12/07 06:55:52;;;;;;;1.55;0.47;;;19.90;56.40;;;;;;4974099;28;20053;-56
2022/12/07 06:58:17;;;;;;;2.28;0.50;;;19.90;56.40;;;;;;4973584;28;20086;-56
2022/12/07 07:00:44;;;;;;;2.67;0.43;;;19.90;56.30;;;;;;4973390;28;20113;-56
2022/12/07 07:03:09;;;;;;;1.05;0.30;;;19.90;56.30;;;;;;4973983;28;20124;-56
2022/12/07 07:05:35;;;;;;;1.75;0.43;;;19.90;56.40;;;;;;4974075;28;20078;-56
2022/12/07 07:08:00;;;;;;;0.60;0.40;;;19.90;56.30;;;;;;4973252;28;20046;-56
2022/12/07 07:10:26;;;;;;;1.00;0.30;;;19.90;56.30;;;;;;4973850;28;20125;-56
2022/12/07 07:12:51;;;;;;;2.55;0.50;;;19.90;56.30;;;;;;4973726;28;20101;-56
2022/12/07 07:15:17;;;;;;;2.55;0.60;;;19.90;56.30;;;;;;4972458;28;20049;-56
2022/12/07 07:17:43;;;;;;;1.40;0.50;;;19.90;56.30;;;;;;4973825;28;20047;-57
2022/12/07 07:20:09;;;;;;;1.60;0.60;;;19.90;56.30;;;;;;4973538;28;20071;-56
2022/12/07 07:22:34;;;;;;;1.75;0.40;;;19.90;56.20;;;;;;4972370;28;20053;-56
2022/12/07 07:25:00;;;;;;;1.40;0.43;;;19.90;56.20;;;;;;4973915;28;20035;-56
2022/12/07 07:27:25;;;;;;;1.48;0.50;;;19.90;56.20;;;;;;4973573;28;20494;-56
2022/12/07 07:29:51;;;;;;;3.97;0.70;;;19.90;56.10;;;;;;4972788;28;20122;-56
2022/12/07 07:32:16;;;;;;;2.88;0.60;;;20.00;56.10;;;;;;4973425;28;20049;-56
2022/12/07 07:34:42;;;;;;;1.60;0.50;;;19.90;56.20;;;;;;4973171;28;20058;-56
2022/12/07 07:37:08;;;;;;;3.58;0.75;;;19.90;56.20;;;;;;4978426;28;20045;-56
2022/12/07 07:39:33;;;;;;;1.83;0.57;;;19.90;56.10;;;;;;4980880;28;20046;-56
2022/12/07 07:41:59;;;;;;;3.75;0.80;;;19.90;56.10;;;;;;4977743;28;20050;-56
2022/12/07 07:44:24;;;;;;;2.78;0.60;;;20.00;56.10;;;;;;4973020;28;20534;-56
2022/12/07 07:46:50;;;;;;;2.42;0.60;;;19.90;56.10;;;;;;4965226;28;20051;-57
2022/12/07 07:49:15;;;;;;;2.50;0.75;;;19.90;56.20;;;;;;4971245;28;20043;-57
2022/12/07 07:51:41;;;;;;;3.83;1.10;;;20.00;56.40;;;;;;4972346;28;20055;-56
2022/12/07 07:54:06;;;;;;;3.35;0.57;;;20.00;56.40;;;;;;4972881;28;20479;-56
2022/12/07 07:56:32;;;;;;;3.05;0.75;;;20.00;56.60;;;;;;4971907;28;20526;-56
2022/12/07 07:58:57;;;;;;;3.05;0.68;;;20.00;56.60;;;;;;4972685;28;20399;-56
2022/12/07 08:01:23;;;;;;;2.22;0.80;;;20.00;56.70;;;;;;4967780;28;20051;-57
2022/12/07 08:03:48;;;;;;;2.75;0.70;;;20.00;56.90;;;;;;4971470;28;20078;-57
2022/12/07 08:06:15;;;;;;;3.72;0.60;;;20.00;56.90;;;;;;4974161;28;20038;-57
2022/12/07 08:08:40;;;;;;;3.53;0.70;;;20.10;57.20;;;;;;4976697;28;20054;-57
2022/12/07 08:11:07;;;;;;;1.52;0.63;;;20.10;57.30;;;;;;4975663;28;20039;-57
2022/12/07 08:13:32;;;;;;;3.17;0.80;;;20.10;57.40;;;;;;4975056;28;20046;-58
2022/12/07 08:15:58;;;;;;;2.85;0.90;;;20.10;57.50;;;;;;4976858;28;20097;-57
2022/12/07 08:18:23;;;;;;;3.17;0.82;;;20.20;57.50;;;;;;4975713;28;20133;-57
2022/12/07 08:20:49;;;;;;;2.63;0.80;;;20.20;57.50;;;;;;4976900;28;20046;-56
2022/12/07 08:23:15;;;;;;;3.10;0.80;;;20.20;57.30;;;;;;4976677;28;20050;-57
2022/12/07 08:25:40;;;;;;;3.22;0.70;;;20.10;57.30;;;;;;4980114;28;20039;-57
2022/12/07 08:28:06;;;;;;;2.67;0.80;;;20.20;57.30;;;;;;4979886;28;20042;-57
2022/12/07 08:30:31;;;;;;;2.70;0.77;;;20.20;57.40;;;;;;4976086;28;20046;-56
2022/12/07 08:32:57;;;;;;;3.75;1.08;;;20.20;57.40;;;;;;4975891;28;20038;-58
2022/12/07 08:35:23;;;;;;;2.55;0.80;;;20.20;57.20;;;;;;4976474;28;20133;-57
2022/12/07 08:37:48;;;;;;;3.50;0.80;;;20.20;57.20;;;;;;4976584;28;20081;-56
2022/12/07 08:40:15;;;;;;;3.97;0.77;;;20.20;57.20;;;;;;4974051;28;20126;-56
2022/12/07 08:42:44;;;;;;;3.70;0.70;;;20.20;57.20;;;;;;4976077;28;20073;-57
2022/12/07 08:45:13;;;;;;;4.43;0.82;;;20.20;57.20;;;;;;4974517;28;20047;-57
2022/12/07 08:47:50;;;;;;;5.97;1.08;;;20.20;57.10;;;;;;4974450;28;20051;-56
2022/12/07 08:50:15;;;;;;;2.78;0.65;;;20.20;57.00;;;;;;4957535;28;20089;-56
2022/12/07 08:52:41;;;;;;;4.43;0.82;;;20.20;57.00;;;;;;4972438;28;20051;-56
2022/12/07 08:55:07;;;;;;;3.97;0.80;;;20.20;56.90;;;;;;4974246;28;20038;-57
2022/12/07 08:57:33;;;;;;;5.38;0.80;;;20.20;56.90;;;;;;4972513;28;20086;-57
2022/12/07 08:59:59;;;;;;;4.15;0.73;;;20.20;56.80;;;;;;4972203;28;20077;-56
2022/12/07 09:02:24;;;;;;;3.13;0.82;;;20.20;56.70;;;;;;4975966;28;20565;-56
2022/12/07 09:04:50;;;;;;;4.00;1.00;;;20.10;56.70;;;;;;4974799;28;20034;-57
2022/12/07 09:07:16;;;;;;;3.33;0.80;;;20.20;56.80;;;;;;4975298;28;20039;-56
2022/12/07 09:09:41;;;;;;;3.53;0.77;;;20.10;56.70;;;;;;4974741;28;20089;-56
2022/12/07 09:12:07;;;;;;;5.93;0.90;;;20.10;56.70;;;;;;4976045;28;20043;-57
2022/12/07 09:14:32;;;;;;;1.98;0.63;;;20.20;56.90;;;;;;4974779;28;20071;-56
2022/12/07 09:17:11;;;;;;;4.72;0.70;;;20.10;56.70;;;;;;4975894;28;20042;-57
2022/12/07 09:19:37;;;;;;;4.00;0.90;;;20.20;56.70;;;;;;4976059;28;20046;-57
2022/12/07 09:22:04;;;;;;;2.65;0.80;;;20.20;56.70;;;;;;4975032;28;20046;-56
2022/12/07 09:24:30;;;;;;;5.35;0.68;;;20.20;56.70;;;;;;4975405;28;20085;-56
2022/12/07 09:26:56;;;;;;;1.85;0.77;;;20.20;56.60;;;;;;4975996;28;20176;-56
2022/12/07 09:29:22;;;;;;;2.03;0.70;;;20.20;56.60;;;;;;4974553;28;20359;-57
2022/12/07 09:31:47;;;;;;;3.88;0.75;;;20.20;56.60;;;;;;4975911;28;20494;-57
2022/12/07 09:34:13;;;;;;;3.30;0.77;;;20.20;56.60;;;;;;4974961;28;20051;-57
2022/12/07 09:36:38;;;;;;;4.57;0.63;;;20.20;56.60;;;;;;4974902;28;20090;-57
2022/12/07 09:39:04;;;;;;;4.10;0.70;;;20.20;56.60;;;;;;4975655;28;20050;-56
2022/12/07 09:41:31;;;;;;;4.20;0.80;;;20.20;56.60;;;;;;4974598;28;20043;-57
2022/12/07 09:44:02;;;;;;;3.40;0.80;;;20.20;56.60;;;;;;4973982;28;20104;-56
2022/12/07 09:46:28;;;;;;;1.38;0.60;;;20.10;56.50;;;;;;4958663;28;20050;-57
2022/12/07 09:48:54;;;;;;;3.63;0.60;;;20.10;56.50;;;;;;4973459;28;20046;-57
2022/12/07 09:51:21;;;;;;;3.50;0.82;;;20.10;56.50;;;;;;4975232;28;20053;-57
2022/12/07 09:53:47;;;;;;;2.13;0.68;;;20.10;56.50;;;;;;4975340;28;20154;-56
2022/12/07 09:56:13;;;;;;;1.58;0.57;;;20.20;56.50;;;;;;4974378;28;20118;-56
2022/12/07 09:58:39;;;;;;;3.88;1.00;;;20.20;56.60;;;;;;4975193;28;20055;-56
2022/12/07 10:01:07;;;;;;;3.00;0.60;;;20.20;56.50;;;;;;4975176;28;20061;-56
2022/12/07 10:03:37;;;;;;;2.78;0.63;;;20.20;56.60;;;;;;4974081;28;20417;-56
2022/12/07 10:06:02;;;;;;;1.58;0.50;;;20.20;56.50;;;;;;4973979;28;20049;-57
2022/12/07 10:08:28;;;;;;;3.80;0.68;;;20.20;56.50;;;;;;4973361;28;20200;-56
2022/12/07 10:10:56;;;;;;;1.40;0.50;;;20.20;56.50;;;;;;4974370;28;20055;-56
2022/12/07 10:13:33;;;;;;;2.40;0.60;;;20.20;56.50;;;;;;4974679;28;20113;-57
2022/12/07 10:15:58;;;;;;;2.08;0.60;;;20.20;56.50;;;;;;4959078;28;20049;-56
2022/12/07 10:18:27;;;;;;;3.33;0.80;;;20.10;56.40;;;;;;4973761;28;20043;-57
2022/12/07 10:21:08;;;;;;;2.22;0.60;;;20.20;56.50;;;;;;4975143;28;20482;-56
2022/12/07 10:23:35;;;;;;;1.88;0.50;;;20.10;56.40;;;;;;4974745;28;20050;-57
2022/12/07 10:26:22;;;;;;;2.47;0.50;;;20.10;56.40;;;;;;4973036;28;20122;-56
2022/12/07 10:28:48;;;;;;;2.47;0.55;;;20.20;56.40;;;;;;4973061;28;20046;-56
2022/12/07 10:31:18;;;;;;;3.13;0.70;;;20.10;56.40;;;;;;4973438;28;20561;-57
2022/12/07 10:33:53;;;;;;;2.08;0.45;;;20.10;56.30;;;;;;4974150;28;20059;-57
2022/12/07 10:36:21;;;;;;;1.60;0.40;;;20.10;56.30;;;;;;4974260;28;20058;-56
2022/12/07 10:39:10;;;;;;;4.13;0.70;;;20.10;56.30;;;;;;4974298;28;20049;-57
2022/12/07 10:41:35;;;;;;;3.17;0.70;;;20.10;56.30;;;;;;4974541;28;20046;-57
2022/12/07 10:44:01;;;;;;;1.55;0.50;;;20.10;56.30;;;;;;4973684;28;20141;-57
2022/12/07 10:46:34;;;;;;;2.35;0.73;;;20.00;56.20;;;;;;4973450;28;20035;-57
2022/12/07 10:49:18;;;;;;;4.22;0.70;;;20.10;56.20;;;;;;4973299;28;20043;-56
2022/12/07 10:51:49;;;;;;;2.40;0.60;;;20.00;56.20;;;;;;4972480;28;20121;-57
2022/12/07 10:54:54;;;;;;;2.00;0.70;;;20.10;56.20;;;;;;4972932;28;20042;-57
2022/12/07 10:57:32;;;;;;;1.92;0.60;;;20.10;56.10;;;;;;4961925;28;20097;-57
2022/12/07 11:00:19;;;;;;;2.22;0.73;;;20.00;56.30;;;;;;4972167;28;20455;-57
2022/12/07 11:02:59;;;;;;;2.97;0.73;;;20.10;56.10;;;;;;4974094;28;20380;-57
2022/12/07 11:05:34;;;;;;;3.30;0.77;;;20.00;56.10;;;;;;4974035;28;20046;-57
2022/12/07 11:08:06;;;;;;;3.85;0.70;;;20.00;56.10;;;;;;4956539;28;20372;-57
2022/12/07 11:10:59;;;;;;;1.92;0.55;;;20.00;56.00;;;;;;4973528;28;20460;-57
2022/12/07 11:13:41;;;;;;;2.50;0.70;;;20.00;56.00;;;;;;4971999;28;20047;-57
2022/12/07 11:16:20;;;;;;;2.88;0.60;;;20.00;56.00;;;;;;4972856;28;20039;-56
2022/12/07 11:19:03;;;;;;;;;;;20.10;56.10;;;;;;4973011;28;20046;-56
2022/12/07 11:21:48;;;;;;;1.05;0.40;;;20.00;56.00;;;;;;4972799;28;19922;-57
2022/12/07 11:24:30;;;;;;;2.13;0.70;;;20.00;56.00;;;;;;4972295;28;20051;-58
2022/12/07 11:27:03;;;;;;;3.35;0.82;;;20.00;56.00;;;;;;4982233;28;20042;-57
2022/12/07 11:29:40;;;;;;;2.15;0.70;;;20.00;55.90;;;;;;4966680;28;20054;-57
2022/12/07 11:32:21;;;;;;;1.75;0.45;;;20.00;55.90;;;;;;4985483;28;20443;-56
2022/12/07 11:35:07;;;;;;;2.22;0.70;;;20.00;55.90;;;;;;4992109;28;20050;-56
2022/12/07 11:37:34;;;;;;;1.52;0.55;;;20.00;55.90;;;;;;4991520;28;20038;-57
2022/12/07 11:40:23;;;;;;;3.58;0.70;;;20.00;55.90;;;;;;4992001;28;20047;-57
2022/12/07 11:42:55;;;;;;;3.30;0.88;;;20.00;55.90;;;;;;4987125;28;20058;-56
2022/12/07 11:45:27;;;;;;;2.45;0.60;;;20.00;56.00;;;;;;4979985;28;20046;-55
2022/12/07 11:48:09;;;;;;;2.17;0.50;;;20.00;56.00;;;;;;4995848;28;20039;-54
2022/12/07 11:50:53;;;;;;;3.28;0.60;;;20.00;56.10;;;;;;4995709;28;20532;-54
2022/12/07 11:53:21;;;;;;;5.00;0.70;;;20.00;56.00;;;;;;4995509;28;20039;-55
2022/12/07 11:56:19;;;;;;;2.75;0.80;;;20.00;56.10;;;;;;4995073;28;20034;-55
2022/12/07 11:58:47;;;;;;;4.30;0.70;;;20.00;56.20;;;;;;4977803;28;20046;-55
2022/12/07 12:01:33;;;;;;;2.10;0.90;;;20.00;56.30;;;;;;4981987;28;20043;-55
2022/12/07 12:04:10;;;;;;;2.70;0.93;;;20.00;56.40;;;;;;4956001;29;20475;-55
2022/12/07 12:06:45;;;;;;;1.65;0.70;;;20.00;56.50;;;;;;4957993;28;20053;-55
2022/12/07 12:09:17;;;;;;;1.65;0.60;;;20.00;56.50;;;;;;4956966;28;20039;-55
2022/12/07 12:12:06;;;;;;;2.40;0.70;;;20.00;56.60;;;;;;4958081;28;20047;-55
2022/12/07 12:14:47;;;;;;;2.78;0.80;;;20.00;56.80;;;;;;4956181;29;20085;-56
2022/12/07 12:17:19;;;;;;;2.05;0.50;;;20.00;56.80;;;;;;4955675;29;20079;-58
2022/12/07 12:20:14;;;;;;;2.65;0.55;;;20.00;56.80;;;;;;4956573;28;20059;-57
2022/12/07 12:22:43;;;;;;;2.35;0.80;;;20.00;56.90;;;;;;4955543;29;20122;-58
2022/12/07 12:25:20;;;;;;;;;;;20.00;56.80;;;;;;4955946;29;20110;-57
2022/12/07 12:27:47;;;;;;;2.50;0.60;;;20.00;56.90;;;;;;4956324;28;19965;-57
2022/12/07 12:30:35;;;;;;;3.65;0.73;;;20.10;56.90;;;;;;4955349;29;20534;-57
2022/12/07 12:33:25;;;;;;;2.65;0.60;;;20.00;57.00;;;;;;4956651;29;20047;-57
2022/12/07 12:36:28;;;;;;;2.40;0.55;;;20.10;57.00;;;;;;4949666;28;20051;-58
2022/12/07 12:39:06;;;;;;;3.03;0.70;;;20.10;57.10;;;;;;4888230;29;20431;-58
2022/12/07 12:41:38;;;;;;;2.08;0.52;;;20.10;57.20;;;;;;4970085;28;20069;-57
2022/12/07 12:44:29;;;;;;;2.30;0.70;;;20.10;57.20;;;;;;4965886;28;20055;-57
2022/12/07 12:46:57;;;;;;;1.92;0.60;;;20.10;57.30;;;;;;4975435;28;20051;-57
2022/12/07 12:49:22;;;;;;;4.05;0.93;;;20.10;57.30;;;;;;4975826;28;20046;-57
2022/12/07 12:51:51;;;;;;;3.08;0.70;;;20.20;57.30;;;;;;4977050;28;20077;-57
2022/12/07 12:54:21;;;;;;;1.20;0.52;;;20.20;57.30;;;;;;4984871;28;20058;-57
2022/12/07 12:56:58;;;;;;;4.78;0.90;;;20.20;57.30;;;;;;4984034;28;20474;-57
2022/12/07 12:59:31;;;;;;;2.45;0.60;;;20.20;57.30;;;;;;4982473;28;20051;-57
2022/12/07 13:02:09;;;;;;;2.78;0.60;;;20.20;57.30;;;;;;4982727;28;20049;-57
2022/12/07 13:04:39;;;;;;;3.88;0.60;;;20.20;57.40;;;;;;4976244;28;20050;-57